createdAt,value
2019-05-15T04:00:40.585Z,1010.30
2019-05-15T04:02:40.572Z,1010.18
2019-05-15T04:04:40.539Z,1010.17
2019-05-15T04:06:40.536Z,1010.23
2019-05-15T04:08:40.507Z,1010.21
2019-05-15T04:10:40.477Z,1010.21
2019-05-15T04:12:40.924Z,1010.15
2019-05-15T04:14:40.450Z,1010.23
2019-05-15T04:16:40.415Z,1010.17
2019-05-15T04:18:40.394Z,1010.24
2019-05-15T04:20:41.066Z,1010.16
2019-05-15T04:22:40.706Z,1010.25
2019-05-15T04:24:40.335Z,1010.21
2019-05-15T04:26:40.311Z,1010.28
2019-05-15T04:28:41.657Z,1010.25
2019-05-15T04:30:40.288Z,1010.22
2019-05-15T04:32:40.567Z,1010.21
2019-05-15T04:34:40.219Z,1010.15
2019-05-15T04:36:44.209Z,1010.11
2019-05-15T04:38:40.176Z,1010.07
2019-05-15T04:40:40.248Z,1009.98
2019-05-15T04:42:40.250Z,1010.02
2019-05-15T04:44:40.131Z,1010.04
2019-05-15T04:46:40.097Z,1010.06
2019-05-15T04:48:40.367Z,1010.02
2019-05-15T04:50:40.471Z,1010.07
2019-05-15T04:52:43.266Z,1009.88
2019-05-15T04:54:40.439Z,1009.80
2019-05-15T04:56:40.319Z,1009.90
2019-05-15T04:58:40.022Z,1009.86
2019-05-15T05:00:40.192Z,1009.87
2019-05-15T05:02:40.731Z,1009.89
2019-05-15T05:04:39.902Z,1010.02
2019-05-15T05:06:39.901Z,1009.99
2019-05-15T05:08:40.250Z,1009.96
2019-05-15T05:10:39.840Z,1009.93
2019-05-15T05:12:41.510Z,1009.90
2019-05-15T05:14:39.814Z,1009.91
2019-05-15T05:16:39.772Z,1009.89
2019-05-15T05:18:41.387Z,1009.88
2019-05-15T05:20:39.779Z,1009.86
2019-05-15T05:22:39.799Z,1009.86
2019-05-15T05:24:39.716Z,1009.85
2019-05-15T05:26:39.656Z,1009.82
2019-05-15T05:28:39.631Z,1009.88
2019-05-15T05:30:39.650Z,1009.83
2019-05-15T05:32:39.642Z,1009.86
2019-05-15T05:34:39.570Z,1009.83
2019-05-15T05:36:39.602Z,1009.86
2019-05-15T05:38:39.546Z,1009.84
2019-05-15T05:40:39.505Z,1009.90
2019-05-15T05:42:39.516Z,1009.93
2019-05-15T05:44:42.657Z,1009.93
2019-05-15T05:46:39.845Z,1009.85
2019-05-15T05:48:39.419Z,1009.81
2019-05-15T05:50:39.461Z,1009.88
2019-05-15T05:52:39.446Z,1009.87
2019-05-15T05:54:39.368Z,1009.87
2019-05-15T05:56:39.345Z,1009.95
2019-05-15T05:58:39.384Z,1009.93
2019-05-15T06:00:39.451Z,1009.93
2019-05-15T06:02:46.861Z,1009.94
2019-05-15T06:04:40.336Z,1009.94
2019-05-15T06:06:39.234Z,1009.94
2019-05-15T06:08:39.220Z,1009.99
2019-05-15T06:10:39.193Z,1009.86
2019-05-15T06:12:39.267Z,1010.01
2019-05-15T06:14:39.156Z,1009.85
2019-05-15T06:16:39.149Z,1009.86
2019-05-15T06:18:39.157Z,1009.84
2019-05-15T06:20:39.598Z,1010.00
2019-05-15T06:22:39.087Z,1009.95
2019-05-15T06:24:39.095Z,1009.89
2019-05-15T06:26:39.025Z,1009.87
2019-05-15T06:28:39.483Z,1009.94
2019-05-15T06:30:38.979Z,1009.91
2019-05-15T06:32:40.130Z,1009.93
2019-05-15T06:34:39.012Z,1009.99
2019-05-15T06:36:39.427Z,1010.00
2019-05-15T06:38:39.460Z,1009.94
2019-05-15T06:40:39.535Z,1009.99
2019-05-15T06:42:39.645Z,1009.99
2019-05-15T06:44:38.991Z,1009.96
2019-05-15T06:46:39.302Z,1009.85
2019-05-15T06:48:38.816Z,1009.90
2019-05-15T06:50:38.764Z,1009.90
2019-05-15T06:52:38.743Z,1009.90
2019-05-15T06:54:38.763Z,1009.80
2019-05-15T06:56:39.063Z,1009.85
2019-05-15T06:58:38.838Z,1009.93
2019-05-15T07:00:39.252Z,1009.85
2019-05-15T07:02:38.666Z,1009.79
2019-05-15T07:04:38.643Z,1009.82
2019-05-15T07:06:38.595Z,1009.81
2019-05-15T07:08:38.596Z,1009.88
2019-05-15T07:10:38.543Z,1009.81
2019-05-15T07:12:39.339Z,1009.85
2019-05-15T07:14:38.528Z,1009.81
2019-05-15T07:16:39.115Z,1009.73
2019-05-15T07:18:39.266Z,1009.81
2019-05-15T07:20:39.074Z,1009.84
2019-05-15T07:22:39.141Z,1009.81
2019-05-15T07:24:38.451Z,1009.75
2019-05-15T07:26:48.206Z,1009.73
2019-05-15T07:28:38.357Z,1009.67
2019-05-15T07:30:41.166Z,1009.66
2019-05-15T07:32:39.622Z,1009.65
2019-05-15T07:34:38.295Z,1009.67
2019-05-15T07:36:39.120Z,1009.55
2019-05-15T07:38:39.166Z,1009.64
2019-05-15T07:40:39.522Z,1009.63
2019-05-15T07:42:38.781Z,1009.50
2019-05-15T07:44:38.817Z,1009.60
2019-05-15T07:46:38.396Z,1009.77
2019-05-15T07:48:38.586Z,1009.67
2019-05-15T07:50:38.917Z,1009.74
2019-05-15T07:52:39.492Z,1009.64
2019-05-15T07:54:38.398Z,1009.61
2019-05-15T07:56:38.213Z,1009.60
2019-05-15T07:58:38.597Z,1009.54
2019-05-15T08:00:39.488Z,1009.47
2019-05-15T08:02:38.431Z,1009.48
2019-05-15T08:04:38.182Z,1009.51
2019-05-15T08:06:38.883Z,1009.43
2019-05-15T08:08:39.269Z,1009.47
2019-05-15T08:10:39.684Z,1009.46
2019-05-15T08:12:39.185Z,1009.49
2019-05-15T08:14:38.832Z,1009.48
2019-05-15T08:16:39.598Z,1009.44
2019-05-15T08:18:39.345Z,1009.39
2019-05-15T08:20:38.529Z,1009.45
2019-05-15T08:22:38.427Z,1009.38
2019-05-15T08:24:39.177Z,1009.44
2019-05-15T08:26:38.328Z,1009.19
2019-05-15T08:28:38.216Z,1009.25
2019-05-15T08:30:38.765Z,1009.24
2019-05-15T08:32:38.904Z,1009.29
2019-05-15T08:34:38.686Z,1009.19
2019-05-15T08:36:38.577Z,1009.23
2019-05-15T08:38:38.384Z,1009.14
2019-05-15T08:40:41.046Z,1009.14
2019-05-15T08:42:41.584Z,1009.09
2019-05-15T08:44:38.725Z,1008.97
2019-05-15T08:46:38.713Z,1008.89
2019-05-15T08:48:38.346Z,1008.90
2019-05-15T08:50:39.002Z,1008.97
2019-05-15T08:52:39.334Z,1008.92
2019-05-15T08:54:38.274Z,1008.90
2019-05-15T08:56:39.399Z,1008.86
2019-05-15T08:58:38.183Z,1008.79
2019-05-15T09:00:39.789Z,1008.98
2019-05-15T09:02:38.298Z,1008.78
2019-05-15T09:04:38.712Z,1008.65
2019-05-15T09:06:41.357Z,1008.76
2019-05-15T09:08:44.792Z,1008.66
2019-05-15T09:10:38.468Z,1008.63
2019-05-15T09:12:38.873Z,1008.70
2019-05-15T09:14:38.035Z,1008.64
2019-05-15T09:16:38.736Z,1008.79
2019-05-15T09:18:39.109Z,1008.62
2019-05-15T09:20:38.348Z,1008.59
2019-05-15T09:22:38.198Z,1008.75
2019-05-15T09:24:37.898Z,1008.66
2019-05-15T09:26:40.085Z,1008.57
2019-05-15T09:28:39.171Z,1008.60
2019-05-15T09:30:39.105Z,1008.71
2019-05-15T09:32:39.299Z,1008.47
2019-05-15T09:34:49.938Z,1008.55
2019-05-15T09:36:42.204Z,1008.53
2019-05-15T09:38:39.024Z,1008.54
2019-05-15T09:40:45.150Z,1008.53
2019-05-15T09:42:38.906Z,1008.53
2019-05-15T09:44:39.029Z,1008.32
2019-05-15T09:46:38.296Z,1008.34
2019-05-15T09:48:39.063Z,1008.29
2019-05-15T09:50:39.702Z,1008.43
2019-05-15T09:52:38.764Z,1008.42
2019-05-15T09:54:38.751Z,1008.25
2019-05-15T09:56:38.476Z,1008.33
2019-05-15T09:58:38.110Z,1008.28
2019-05-15T10:00:38.549Z,1008.24
2019-05-15T10:02:39.329Z,1008.28
2019-05-15T10:04:38.858Z,1008.33
2019-05-15T10:06:38.925Z,1008.30
2019-05-15T10:08:39.483Z,1008.16
2019-05-15T10:10:38.018Z,1008.28
2019-05-15T10:12:38.692Z,1008.24
2019-05-15T10:14:38.645Z,1008.22
2019-05-15T10:16:36.542Z,1008.11
2019-05-15T10:18:38.645Z,1008.10
2019-05-15T10:20:36.499Z,1008.16
2019-05-15T10:22:36.449Z,1008.17
2019-05-15T10:24:36.432Z,1008.22
2019-05-15T10:26:36.412Z,1008.04
2019-05-15T10:28:38.994Z,1008.09
2019-05-15T10:30:39.231Z,1008.11
2019-05-15T10:32:39.212Z,1008.07
2019-05-15T10:34:38.347Z,1007.99
2019-05-15T10:36:38.528Z,1008.01
2019-05-15T10:38:38.953Z,1007.96
2019-05-15T10:40:36.258Z,1007.96
2019-05-15T10:42:36.228Z,1007.91
2019-05-15T10:44:36.227Z,1007.97
2019-05-15T10:46:38.152Z,1008.12
2019-05-15T10:48:38.540Z,1007.87
2019-05-15T10:50:38.599Z,1007.80
2019-05-15T10:52:38.217Z,1007.92
2019-05-15T10:54:38.134Z,1007.89
2019-05-15T10:56:38.378Z,1007.83
2019-05-15T10:58:36.080Z,1007.86
2019-05-15T11:00:36.057Z,1007.78
2019-05-15T11:02:36.015Z,1007.85
2019-05-15T11:04:35.993Z,1007.75
2019-05-15T11:06:38.196Z,1007.71
2019-05-15T11:08:35.966Z,1007.66
2019-05-15T11:10:38.564Z,1007.61
2019-05-15T11:12:36.915Z,1007.63
2019-05-15T11:14:37.960Z,1007.56
2019-05-15T11:16:35.873Z,1007.58
2019-05-15T11:18:36.020Z,1007.57
2019-05-15T11:20:35.851Z,1007.64
2019-05-15T11:22:42.258Z,1007.57
2019-05-15T11:24:38.512Z,1007.50
2019-05-15T11:26:35.750Z,1007.43
2019-05-15T11:28:38.746Z,1007.48
2019-05-15T11:30:35.716Z,1007.30
2019-05-15T11:32:35.715Z,1007.37
2019-05-15T11:34:38.142Z,1007.32
2019-05-15T11:36:38.495Z,1007.18
2019-05-15T11:38:37.963Z,1007.29
2019-05-15T11:40:35.606Z,1007.29
2019-05-15T11:42:35.588Z,1007.36
2019-05-15T11:44:35.555Z,1007.37
2019-05-15T11:46:35.557Z,1007.35
2019-05-15T11:48:35.512Z,1007.35
2019-05-15T11:50:35.501Z,1007.34
2019-05-15T11:52:37.353Z,1007.25
2019-05-15T11:54:35.444Z,1007.22
2019-05-15T11:56:35.451Z,1007.29
2019-05-15T11:58:35.410Z,1007.15
2019-05-15T12:00:35.383Z,1007.21
2019-05-15T12:02:38.160Z,1007.15
2019-05-15T12:04:35.356Z,1007.17
2019-05-15T12:06:35.319Z,1007.13
2019-05-15T12:08:35.310Z,1007.11
2019-05-15T12:10:35.294Z,1007.14
2019-05-15T12:12:35.253Z,1007.01
2019-05-15T12:14:35.253Z,1007.14
2019-05-15T12:16:36.391Z,1007.02
2019-05-15T12:18:35.183Z,1007.03
2019-05-15T12:20:35.171Z,1006.93
2019-05-15T12:22:35.148Z,1006.90
2019-05-15T12:24:37.164Z,1007.04
2019-05-15T12:26:39.235Z,1007.10
2019-05-15T12:28:35.083Z,1007.07
2019-05-15T12:30:35.067Z,1006.99
2019-05-15T12:32:36.702Z,1007.04
2019-05-15T12:34:35.011Z,1007.04
2019-05-15T12:36:50.746Z,1007.04
2019-05-15T12:38:35.984Z,1006.98
2019-05-15T13:00:35.740Z,1006.75
2019-05-15T13:02:34.702Z,1006.86
2019-05-15T13:04:34.715Z,1006.78
2019-05-15T13:06:47.396Z,1006.75
2019-05-15T13:08:38.309Z,1006.63
2019-05-15T13:10:34.649Z,1006.66
2019-05-15T13:12:34.656Z,1006.65
2019-05-15T13:14:34.576Z,1006.69
2019-05-15T13:16:34.562Z,1006.66
2019-05-15T13:18:34.541Z,1006.65
2019-05-15T13:20:34.514Z,1006.51
2019-05-15T13:22:36.415Z,1006.54
2019-05-15T13:24:34.495Z,1006.53
2019-05-15T13:26:34.465Z,1006.56
2019-05-15T13:28:34.424Z,1006.53
2019-05-15T13:30:37.680Z,1006.55
2019-05-15T13:32:35.395Z,1006.54
2019-05-15T13:34:34.359Z,1006.59
2019-05-15T13:36:34.353Z,1006.50
2019-05-15T13:38:34.306Z,1006.53
2019-05-15T13:40:38.087Z,1006.34
2019-05-15T13:42:35.257Z,1006.45
2019-05-15T13:44:34.299Z,1006.45
2019-05-15T13:46:34.233Z,1006.38
2019-05-15T13:48:34.192Z,1006.29
2019-05-15T13:50:34.200Z,1006.24
2019-05-15T13:52:34.168Z,1006.46
2019-05-15T13:54:34.132Z,1006.37
2019-05-15T13:56:34.129Z,1006.35
2019-05-15T13:58:34.094Z,1006.33
2019-05-15T14:00:34.059Z,1006.37
2019-05-15T14:02:34.061Z,1006.31
2019-05-15T14:04:34.032Z,1006.19
2019-05-15T14:06:34.006Z,1006.18
2019-05-15T14:08:33.991Z,1006.25
2019-05-15T14:10:33.976Z,1006.21
2019-05-15T14:12:33.943Z,1006.21
2019-05-15T14:14:33.941Z,1006.18
2019-05-15T14:16:33.940Z,1006.25
2019-05-15T14:18:33.870Z,1006.28
2019-05-15T14:20:33.853Z,1006.25
2019-05-15T14:22:33.848Z,1006.25
2019-05-15T14:24:33.801Z,1006.33
2019-05-15T14:26:33.790Z,1006.26
2019-05-15T14:28:33.780Z,1006.28
2019-05-15T14:30:33.731Z,1006.29
2019-05-15T14:32:38.691Z,1006.25
2019-05-15T14:34:34.750Z,1006.15
2019-05-15T14:36:33.668Z,1006.11
2019-05-15T14:38:33.708Z,1006.17
2019-05-15T14:40:33.639Z,1006.16
2019-05-15T14:42:33.600Z,1006.20
2019-05-15T14:44:33.667Z,1006.22
2019-05-15T14:46:33.613Z,1006.14
2019-05-15T14:48:33.530Z,1006.03
2019-05-15T14:50:33.528Z,1006.04
2019-05-15T14:52:33.499Z,1006.06
2019-05-15T14:54:33.471Z,1006.01
2019-05-15T14:56:33.464Z,1005.88
2019-05-15T14:58:33.438Z,1005.86
2019-05-15T15:00:35.050Z,1005.85
2019-05-15T15:02:33.427Z,1005.91
2019-05-15T15:04:33.357Z,1005.94
2019-05-15T15:06:33.344Z,1005.86
2019-05-15T15:08:33.412Z,1005.81
2019-05-15T15:10:33.295Z,1005.73
2019-05-15T15:12:33.280Z,1005.78
2019-05-15T15:14:33.291Z,1005.71
2019-05-15T15:16:33.228Z,1005.72
2019-05-15T15:18:33.209Z,1005.82
2019-05-15T15:20:33.209Z,1005.76
2019-05-15T15:22:33.220Z,1005.69
2019-05-15T15:24:33.137Z,1005.60
2019-05-15T15:26:33.149Z,1005.65
2019-05-15T15:28:33.155Z,1005.62
2019-05-15T15:30:33.094Z,1005.59
2019-05-15T15:32:33.085Z,1005.62
2019-05-15T15:34:33.061Z,1005.68
2019-05-15T15:36:33.022Z,1005.64
2019-05-15T15:38:40.216Z,1005.59
2019-05-15T15:40:33.977Z,1005.58
2019-05-15T15:42:32.951Z,1005.71
2019-05-15T15:44:32.964Z,1005.61
2019-05-15T15:46:32.937Z,1005.56
2019-05-15T15:48:32.883Z,1005.54
2019-05-15T15:50:32.902Z,1005.56
2019-05-15T15:52:32.869Z,1005.59
2019-05-15T15:54:32.820Z,1005.48
2019-05-15T15:56:32.790Z,1005.55
2019-05-15T15:58:32.868Z,1005.51
2019-05-15T16:00:32.743Z,1005.55
2019-05-15T16:02:32.744Z,1005.64
2019-05-15T16:04:32.745Z,1005.69
2019-05-15T16:06:32.680Z,1005.53
2019-05-15T16:08:32.665Z,1005.50
2019-05-15T16:10:32.689Z,1005.51
2019-05-15T16:12:32.647Z,1005.53
2019-05-15T16:14:32.604Z,1005.37
2019-05-15T16:16:32.591Z,1005.47
2019-05-15T16:18:32.562Z,1005.40
2019-05-15T16:20:32.589Z,1005.50
2019-05-15T16:22:32.502Z,1005.48
2019-05-15T16:24:32.510Z,1005.43
2019-05-15T16:26:32.468Z,1005.34
2019-05-15T16:28:32.430Z,1005.33
2019-05-15T16:30:32.450Z,1005.35
2019-05-15T16:32:32.410Z,1005.30
2019-05-15T16:34:32.366Z,1005.23
2019-05-15T16:36:32.362Z,1005.20
2019-05-15T16:38:32.336Z,1005.21
2019-05-15T16:40:32.352Z,1005.30
2019-05-15T16:42:32.305Z,1005.21
2019-05-15T16:44:32.302Z,1005.19
2019-05-15T16:46:32.238Z,1005.37
2019-05-15T16:48:32.233Z,1005.25
2019-05-15T16:50:32.226Z,1005.26
2019-05-15T16:52:32.212Z,1005.24
2019-05-15T16:54:32.154Z,1005.39
2019-05-15T16:56:32.143Z,1005.30
2019-05-15T16:58:32.127Z,1005.30
2019-05-15T17:00:32.123Z,1005.35
2019-05-15T17:02:32.354Z,1005.34
2019-05-15T17:04:32.086Z,1005.26
2019-05-15T17:06:32.057Z,1005.38
2019-05-15T17:08:32.395Z,1005.30
2019-05-15T17:10:32.008Z,1005.23
2019-05-15T17:12:31.986Z,1005.21
2019-05-15T17:14:31.954Z,1005.30
2019-05-15T17:16:31.952Z,1005.29
2019-05-15T17:18:31.895Z,1005.28
2019-05-15T17:20:31.883Z,1005.29
2019-05-15T17:22:31.894Z,1005.33
2019-05-15T17:24:31.877Z,1005.25
2019-05-15T17:26:31.811Z,1005.25
2019-05-15T17:28:31.811Z,1005.26
2019-05-15T17:30:31.783Z,1005.20
2019-05-15T17:32:31.746Z,1005.20
2019-05-15T17:34:31.779Z,1005.18
2019-05-15T17:36:32.080Z,1005.15
2019-05-15T17:38:31.678Z,1005.27
2019-05-15T17:40:31.693Z,1005.25
2019-05-15T17:42:31.644Z,1005.22
2019-05-15T17:44:31.631Z,1005.24
2019-05-15T17:46:31.597Z,1005.18
2019-05-15T17:48:31.578Z,1005.24
2019-05-15T17:50:45.043Z,1005.28
2019-05-15T17:52:32.575Z,1005.25
2019-05-15T17:54:31.517Z,1005.23
2019-05-15T17:56:31.481Z,1005.23
2019-05-15T17:58:31.535Z,1005.26
2019-05-15T18:00:31.458Z,1005.29
2019-05-15T18:02:31.428Z,1005.27
2019-05-15T18:04:31.412Z,1005.23
2019-05-15T18:06:31.448Z,1005.28
2019-05-15T18:08:31.355Z,1005.30
2019-05-15T18:10:31.379Z,1005.28
2019-05-15T18:12:31.323Z,1005.27
2019-05-15T18:14:31.318Z,1005.24
2019-05-15T18:16:31.285Z,1005.28
2019-05-15T18:18:31.246Z,1005.33
2019-05-15T18:20:31.241Z,1005.20
2019-05-15T18:22:31.211Z,1005.36
2019-05-15T18:24:31.177Z,1005.23
2019-05-15T18:26:31.174Z,1005.30
2019-05-15T18:28:31.152Z,1005.25
2019-05-15T18:30:31.114Z,1005.31
2019-05-15T18:32:31.109Z,1005.26
2019-05-15T18:34:31.091Z,1005.25
2019-05-15T18:36:31.047Z,1005.26
2019-05-15T18:38:31.032Z,1005.34
2019-05-15T18:40:31.030Z,1005.27
2019-05-15T18:42:31.007Z,1005.35
2019-05-15T18:44:30.983Z,1005.32
2019-05-15T18:46:30.971Z,1005.23
2019-05-15T18:48:30.948Z,1005.28
2019-05-15T18:50:30.902Z,1005.30
2019-05-15T18:52:30.926Z,1005.35
2019-05-15T18:54:30.923Z,1005.33
2019-05-15T18:56:30.846Z,1005.35
2019-05-15T18:58:30.829Z,1005.33
2019-05-15T19:00:30.821Z,1005.29
2019-05-15T19:02:30.780Z,1005.34
2019-05-15T19:04:30.761Z,1005.34
2019-05-15T19:06:30.737Z,1005.28
2019-05-15T19:08:30.714Z,1005.29
2019-05-15T19:10:30.744Z,1005.31
2019-05-15T19:12:30.698Z,1005.26
2019-05-15T19:14:30.813Z,1005.29
2019-05-15T19:16:31.784Z,1005.26
2019-05-15T19:18:30.710Z,1005.30
2019-05-15T19:20:31.850Z,1005.25
2019-05-15T19:22:30.612Z,1005.28
2019-05-15T19:24:30.686Z,1005.26
2019-05-15T19:26:30.542Z,1005.22
2019-05-15T19:28:30.492Z,1005.26
2019-05-15T19:30:30.497Z,1005.30
2019-05-15T19:32:30.443Z,1005.28
2019-05-15T19:34:30.437Z,1005.26
2019-05-15T19:36:30.434Z,1005.31
2019-05-15T19:38:30.591Z,1005.30
2019-05-15T19:40:30.358Z,1005.32
2019-05-15T19:42:30.352Z,1005.27
2019-05-15T19:44:30.310Z,1005.30
2019-05-15T19:46:30.289Z,1005.25
2019-05-15T19:48:30.275Z,1005.31
2019-05-15T19:50:30.262Z,1005.30
2019-05-15T19:52:30.237Z,1005.27
2019-05-15T19:54:30.226Z,1005.25
2019-05-15T19:56:30.192Z,1005.24
2019-05-15T19:58:30.179Z,1005.21
2019-05-15T20:00:30.135Z,1005.28
2019-05-15T20:02:30.151Z,1005.21
2019-05-15T20:04:30.133Z,1005.20
2019-05-15T20:06:30.077Z,1005.08
2019-05-15T20:08:30.069Z,1005.17
2019-05-15T20:10:30.051Z,1005.15
2019-05-15T20:12:30.004Z,1005.13
2019-05-15T20:14:29.983Z,1005.18
2019-05-15T20:16:29.983Z,1005.15
2019-05-15T20:18:29.952Z,1005.20
2019-05-15T20:20:29.939Z,1005.18
2019-05-15T20:22:29.949Z,1005.17
2019-05-15T20:24:29.904Z,1005.28
2019-05-15T20:26:29.882Z,1005.25
2019-05-15T20:28:30.957Z,1005.24
2019-05-15T20:30:30.782Z,1005.27
2019-05-15T20:32:30.448Z,1005.23
2019-05-15T20:34:29.773Z,1005.26
2019-05-15T20:36:30.063Z,1005.19
2019-05-15T20:38:29.750Z,1005.24
2019-05-15T20:40:29.705Z,1005.19
2019-05-15T20:42:29.750Z,1005.18
2019-05-15T20:44:29.674Z,1005.19
2019-05-15T20:46:29.657Z,1005.21
2019-05-15T20:48:29.630Z,1005.13
2019-05-15T20:50:29.604Z,1005.12
2019-05-15T20:52:29.592Z,1005.11
2019-05-15T20:54:29.569Z,1005.12
2019-05-15T20:56:29.532Z,1005.13
2019-05-15T20:58:29.527Z,1005.16
2019-05-15T21:00:29.511Z,1005.14
2019-05-15T21:02:29.496Z,1005.10
2019-05-15T21:04:29.458Z,1005.11
2019-05-15T21:06:29.429Z,1005.11
2019-05-15T21:08:29.403Z,1005.09
2019-05-15T21:10:29.394Z,1005.10
2019-05-15T21:12:29.898Z,1005.06
2019-05-15T21:14:29.337Z,1005.05
2019-05-15T21:16:29.348Z,1005.06
2019-05-15T21:18:29.297Z,1005.08
2019-05-15T21:20:29.315Z,1005.03
2019-05-15T21:22:29.262Z,1005.05
2019-05-15T21:24:29.259Z,1005.08
2019-05-15T21:26:29.247Z,1005.07
2019-05-15T21:28:30.042Z,1005.01
2019-05-15T21:30:29.691Z,1005.02
2019-05-15T21:32:29.155Z,1005.04
2019-05-15T21:34:37.420Z,1004.99
2019-05-15T21:36:31.376Z,1004.98
2019-05-15T21:38:29.219Z,1004.97
2019-05-15T21:40:29.154Z,1004.95
2019-05-15T21:42:29.044Z,1004.95
2019-05-15T21:44:29.424Z,1004.94
2019-05-15T21:46:28.991Z,1005.05
2019-05-15T21:48:29.016Z,1004.98
2019-05-15T21:50:28.954Z,1004.88
2019-05-15T21:52:29.428Z,1005.01
2019-05-15T21:54:28.916Z,1005.00
2019-05-15T21:56:28.901Z,1004.98
2019-05-15T21:58:28.873Z,1004.96
2019-05-15T22:00:29.134Z,1004.94
2019-05-15T22:02:29.608Z,1004.96
2019-05-15T22:04:30.518Z,1004.98
2019-05-15T22:06:29.336Z,1004.89
2019-05-15T22:08:28.755Z,1005.01
2019-05-15T22:10:28.903Z,1005.04
2019-05-15T22:12:28.721Z,1005.02
2019-05-15T22:14:28.711Z,1005.01
2019-05-15T22:16:28.947Z,1005.03
2019-05-15T22:18:28.650Z,1005.06
2019-05-15T22:20:30.567Z,1005.06
2019-05-15T22:22:28.625Z,1004.99
2019-05-15T22:24:28.652Z,1004.95
2019-05-15T22:26:29.178Z,1004.95
2019-05-15T22:28:28.525Z,1004.89
2019-05-15T22:30:30.322Z,1004.83
2019-05-15T22:32:35.540Z,1004.91
2019-05-15T22:34:28.622Z,1004.84
2019-05-15T22:36:28.448Z,1004.76
2019-05-15T22:38:28.608Z,1004.77
2019-05-15T22:40:29.055Z,1004.74
2019-05-15T22:42:31.615Z,1004.71
2019-05-15T22:44:28.354Z,1004.73
2019-05-15T22:46:29.006Z,1004.70
2019-05-15T22:48:28.806Z,1004.65
2019-05-15T22:50:28.418Z,1004.71
2019-05-15T22:52:28.276Z,1004.66
2019-05-15T22:54:28.254Z,1004.69
2019-05-15T22:56:29.708Z,1004.71
2019-05-15T22:58:28.304Z,1004.65
2019-05-15T23:00:28.999Z,1004.68
2019-05-15T23:02:28.151Z,1004.63
2019-05-15T23:04:28.698Z,1004.67
2019-05-15T23:06:28.346Z,1004.68
2019-05-15T23:08:29.034Z,1004.70
2019-05-15T23:10:29.160Z,1004.66
2019-05-15T23:12:28.732Z,1004.62
2019-05-15T23:14:28.713Z,1004.56
2019-05-15T23:16:28.432Z,1004.56
2019-05-15T23:18:27.985Z,1004.54
2019-05-15T23:20:28.517Z,1004.55
2019-05-15T23:22:28.058Z,1004.52
2019-05-15T23:24:28.236Z,1004.54
2019-05-15T23:26:28.318Z,1004.58
2019-05-15T23:28:28.221Z,1004.58
